createdAt,value
2023-05-08T00:01:54.774Z,14.93
2023-05-08T00:04:22.413Z,17.25
2023-05-08T00:06:51.544Z,15.82
2023-05-08T00:09:20.524Z,18.35
2023-05-08T00:11:48.525Z,17.77
2023-05-08T00:14:16.102Z,18.15
2023-05-08T00:16:43.813Z,18.02
2023-05-08T00:19:11.419Z,19.13
2023-05-08T00:21:39.063Z,19.88
2023-05-08T00:24:07.051Z,19.88
2023-05-08T00:26:34.587Z,19.08
2023-05-08T00:29:02.124Z,19.38
2023-05-08T00:31:29.742Z,21.00
2023-05-08T00:33:57.313Z,20.33
2023-05-08T00:36:24.845Z,18.30
2023-05-08T00:38:52.446Z,19.80
2023-05-08T00:41:20.070Z,19.88
2023-05-08T00:43:47.639Z,19.55
2023-05-08T00:46:15.769Z,21.17
2023-05-08T00:48:44.206Z,23.73
2023-05-08T00:51:13.028Z,20.27
2023-05-08T00:53:43.358Z,19.15
2023-05-08T00:56:15.284Z,22.20
2023-05-08T00:58:44.571Z,22.23
2023-05-08T01:01:12.418Z,22.70
2023-05-08T01:03:40.870Z,23.77
2023-05-08T01:06:08.896Z,23.40
2023-05-08T01:08:36.796Z,22.35
2023-05-08T01:11:17.994Z,22.02
2023-05-08T01:14:06.942Z,22.48
2023-05-08T01:16:55.972Z,20.55
2023-05-08T01:19:57.847Z,23.10
2023-05-08T01:23:07.354Z,21.02
2023-05-08T01:26:05.323Z,21.33
2023-05-08T01:29:16.276Z,22.10
2023-05-08T01:31:46.791Z,24.05
2023-05-08T01:34:27.779Z,24.55
2023-05-08T01:37:03.344Z,22.20
2023-05-08T01:39:44.494Z,24.05
2023-05-08T01:42:43.407Z,24.70
2023-05-08T01:45:22.700Z,22.98
2023-05-08T01:48:05.373Z,21.65
2023-05-08T01:50:46.186Z,20.75
2023-05-08T01:53:24.397Z,23.58
2023-05-08T01:55:59.753Z,24.02
2023-05-08T01:58:30.653Z,23.55
2023-05-08T02:01:02.316Z,25.48
2023-05-08T02:03:33.719Z,23.48
2023-05-08T02:06:03.379Z,21.90
2023-05-08T02:08:33.445Z,23.35
2023-05-08T02:11:04.139Z,22.33
2023-05-08T02:13:34.961Z,23.23
2023-05-08T02:16:05.477Z,23.13
2023-05-08T02:18:34.620Z,27.17
2023-05-08T02:21:05.477Z,25.27
2023-05-08T02:23:34.801Z,26.30
2023-05-08T02:26:04.998Z,23.48
2023-05-08T02:28:33.575Z,23.83
2023-05-08T02:31:01.880Z,23.50
2023-05-08T02:33:31.595Z,23.95
2023-05-08T02:36:01.408Z,24.73
2023-05-08T02:38:31.849Z,24.40
2023-05-08T02:41:03.829Z,25.35
2023-05-08T02:43:32.051Z,26.27
2023-05-08T02:46:12.908Z,26.55
2023-05-08T02:48:58.561Z,27.47
2023-05-08T02:51:39.645Z,27.75
2023-05-08T02:54:36.619Z,25.60
2023-05-08T02:57:33.318Z,26.23
2023-05-08T03:00:37.721Z,25.55
2023-05-08T03:03:21.274Z,26.63
2023-05-08T03:05:59.822Z,25.35
2023-05-08T03:08:34.662Z,25.73
2023-05-08T03:11:12.309Z,26.45
2023-05-08T03:13:43.280Z,26.77
2023-05-08T03:16:20.580Z,26.42
2023-05-08T03:18:59.524Z,30.27
2023-05-08T03:21:31.800Z,33.10
2023-05-08T03:24:03.145Z,30.80
2023-05-08T03:28:59.247Z,32.83
2023-05-08T03:31:33.042Z,30.65
2023-05-08T03:34:02.962Z,25.77
2023-05-08T03:36:31.460Z,24.48
2023-05-08T03:39:00.662Z,24.52
2023-05-08T03:41:28.482Z,27.65
2023-05-08T03:43:57.484Z,28.35
2023-05-08T03:46:26.559Z,26.95
2023-05-08T03:48:55.354Z,30.85
2023-05-08T03:51:23.921Z,29.23
2023-05-08T03:53:52.246Z,29.75
2023-05-08T03:56:20.057Z,32.47
2023-05-08T03:59:00.572Z,29.90
2023-05-08T04:01:40.851Z,29.60
2023-05-08T04:04:37.347Z,26.17
2023-05-08T04:07:27.606Z,25.00
2023-05-08T04:10:16.261Z,26.00
2023-05-08T04:13:04.875Z,26.83
2023-05-08T04:15:39.335Z,25.17
2023-05-08T04:18:14.763Z,27.17
2023-05-08T04:20:47.910Z,24.67
2023-05-08T04:23:21.959Z,23.55
2023-05-08T04:25:53.653Z,24.00
2023-05-08T04:28:22.397Z,23.17
2023-05-08T04:30:51.920Z,24.25
2023-05-08T04:33:19.732Z,24.20
2023-05-08T04:35:49.478Z,23.30
2023-05-08T04:38:17.102Z,24.00
2023-05-08T04:40:45.433Z,26.33
2023-05-08T04:43:13.149Z,25.98
2023-05-08T04:45:40.801Z,26.45
2023-05-08T04:48:08.376Z,22.58
2023-05-08T04:50:36.344Z,25.60
2023-05-08T04:53:04.166Z,22.25
2023-05-08T04:55:31.879Z,27.20
2023-05-08T04:57:59.676Z,29.00
2023-05-08T05:00:27.405Z,26.00
2023-05-08T05:02:55.005Z,27.02
2023-05-08T05:05:22.788Z,30.98
2023-05-08T05:07:50.690Z,28.33
2023-05-08T05:10:20.325Z,28.83
2023-05-08T05:12:47.883Z,27.42
2023-05-08T05:15:15.811Z,27.75
2023-05-08T05:17:43.990Z,26.98
2023-05-08T05:20:13.302Z,25.33
2023-05-08T05:22:41.100Z,27.67
2023-05-08T05:25:09.991Z,26.92
2023-05-08T05:27:37.636Z,31.02
2023-05-08T05:30:08.287Z,27.73
2023-05-08T05:32:36.025Z,28.77
2023-05-08T05:35:04.119Z,26.73
2023-05-08T05:37:31.786Z,24.50
2023-05-08T05:39:59.474Z,27.98
2023-05-08T05:42:27.090Z,29.55
2023-05-08T05:44:56.992Z,30.30
2023-05-08T05:47:25.245Z,30.92
2023-05-08T05:49:52.857Z,29.30
2023-05-08T05:52:20.448Z,28.98
2023-05-08T05:54:48.348Z,32.70
2023-05-08T05:57:16.109Z,32.40
2023-05-08T05:59:43.649Z,35.63
2023-05-08T06:02:18.465Z,35.13
2023-05-08T06:04:46.710Z,36.05
2023-05-08T06:07:15.261Z,38.78
2023-05-08T06:09:42.774Z,42.20
2023-05-08T06:12:12.027Z,42.35
2023-05-08T06:14:39.870Z,42.25
2023-05-08T06:17:34.253Z,45.38
2023-05-08T06:20:07.438Z,45.10
2023-05-08T06:22:35.001Z,44.45
2023-05-08T06:25:02.687Z,46.05
2023-05-08T06:27:30.280Z,47.10
2023-05-08T06:29:57.785Z,42.47
2023-05-08T06:32:25.456Z,43.05
2023-05-08T06:34:53.036Z,44.28
2023-05-08T06:37:20.596Z,42.03
2023-05-08T06:39:50.516Z,43.83
2023-05-08T06:42:22.272Z,48.90
2023-05-08T06:44:50.808Z,45.78
2023-05-08T06:47:19.329Z,44.08
2023-05-08T06:49:46.854Z,46.78
2023-05-08T06:52:14.452Z,43.05
2023-05-08T06:54:42.105Z,45.08
2023-05-08T06:57:11.071Z,43.40
2023-05-08T06:59:39.466Z,42.45
2023-05-08T07:02:07.718Z,44.92
2023-05-08T07:04:36.002Z,44.50
2023-05-08T07:07:03.687Z,40.15
2023-05-08T07:09:31.256Z,39.00
2023-05-08T07:11:58.853Z,39.67
2023-05-08T07:14:27.533Z,41.20
2023-05-08T07:16:55.061Z,38.97
2023-05-08T07:19:22.782Z,37.78
2023-05-08T07:21:50.862Z,43.38
2023-05-08T07:24:18.466Z,42.58
2023-05-08T07:26:46.018Z,45.75
2023-05-08T07:29:13.787Z,45.92
2023-05-08T07:31:41.760Z,44.00
2023-05-08T07:34:09.295Z,44.63
2023-05-08T07:36:36.864Z,43.97
2023-05-08T07:39:04.584Z,44.13
2023-05-08T07:41:32.463Z,43.22
2023-05-08T07:44:00.091Z,47.00
2023-05-08T07:46:27.644Z,37.80
2023-05-08T07:48:55.596Z,39.13
2023-05-08T07:51:23.128Z,38.35
2023-05-08T07:53:51.168Z,44.70
2023-05-08T07:56:18.732Z,48.47
2023-05-08T07:58:47.860Z,45.15
2023-05-08T08:01:18.063Z,46.80
2023-05-08T08:03:46.799Z,48.20
2023-05-08T08:06:14.610Z,30.40
2023-05-08T08:08:42.428Z,40.75
2023-05-08T08:11:09.992Z,43.83
2023-05-08T08:13:37.595Z,34.92
2023-05-08T08:16:06.298Z,36.15
2023-05-08T08:18:38.301Z,36.72
2023-05-08T08:21:08.854Z,38.50
2023-05-08T08:23:36.843Z,37.50
2023-05-08T08:26:04.610Z,39.63
2023-05-08T08:28:32.117Z,43.33
2023-05-08T08:30:59.884Z,47.05
2023-05-08T08:33:29.617Z,48.05
2023-05-08T08:35:57.225Z,44.78
2023-05-08T08:38:24.835Z,43.97
2023-05-08T08:40:53.125Z,44.03
2023-05-08T08:43:20.698Z,45.28
2023-05-08T08:45:48.413Z,43.17
2023-05-08T08:48:16.937Z,41.88
2023-05-08T08:50:53.103Z,41.58
2023-05-08T08:53:33.468Z,38.97
2023-05-08T08:56:02.149Z,41.30
2023-05-08T08:58:46.771Z,39.45
2023-05-08T09:01:19.404Z,43.45
2023-05-08T09:03:49.666Z,44.42
2023-05-08T09:06:19.228Z,44.70
2023-05-08T09:08:47.594Z,45.72
2023-05-08T09:11:15.253Z,45.10
2023-05-08T09:13:42.847Z,43.67
2023-05-08T09:16:10.824Z,45.03
2023-05-08T09:18:38.494Z,44.22
2023-05-08T09:21:07.109Z,41.08
2023-05-08T09:23:37.807Z,40.20
2023-05-08T09:26:05.414Z,38.07
2023-05-08T09:28:32.996Z,35.33
2023-05-08T09:31:01.646Z,32.03
2023-05-08T09:33:30.122Z,31.02
2023-05-08T09:35:58.295Z,32.97
2023-05-08T09:38:40.552Z,31.42
2023-05-08T09:41:17.016Z,31.27
2023-05-08T09:44:01.173Z,35.42
2023-05-08T09:46:29.918Z,34.42
2023-05-08T09:49:02.192Z,37.22
2023-05-08T09:51:32.352Z,36.05
2023-05-08T09:54:00.535Z,37.15
2023-05-08T09:56:39.345Z,40.42
2023-05-08T09:59:29.467Z,41.05
2023-05-08T10:01:58.087Z,42.70
2023-05-08T10:04:37.758Z,44.13
2023-05-08T10:07:05.473Z,43.97
2023-05-08T10:09:46.836Z,43.10
2023-05-08T10:12:18.741Z,41.60
2023-05-08T10:14:46.949Z,47.28
2023-05-08T10:17:25.042Z,45.15
2023-05-08T10:20:01.095Z,40.83
2023-05-08T10:22:29.572Z,41.65
2023-05-08T10:25:00.786Z,42.25
2023-05-08T10:27:55.252Z,42.53
2023-05-08T10:30:26.572Z,41.15
2023-05-08T10:37:56.279Z,36.05
2023-05-08T10:40:24.522Z,36.85
2023-05-08T10:42:52.303Z,36.50
2023-05-08T10:45:20.038Z,35.03
2023-05-08T10:48:18.281Z,32.35
2023-05-08T10:51:21.945Z,33.13
2023-05-08T10:54:23.556Z,34.72
2023-05-08T10:56:51.154Z,34.05
2023-05-08T10:59:20.456Z,32.78
2023-05-08T11:01:52.103Z,26.10
2023-05-08T11:04:24.042Z,25.63
2023-05-08T11:06:53.181Z,22.38
2023-05-08T11:09:28.604Z,21.85
2023-05-08T11:12:08.916Z,22.55
2023-05-08T11:14:42.658Z,19.85
2023-05-08T11:17:11.155Z,21.98
2023-05-08T11:19:38.996Z,22.70
2023-05-08T11:22:21.853Z,22.98
2023-05-08T11:25:05.491Z,24.27
2023-05-08T11:27:40.738Z,52.97
2023-05-08T11:30:33.473Z,19.60
2023-05-08T11:33:04.453Z,22.10
2023-05-08T11:35:55.783Z,21.70
2023-05-08T11:38:34.316Z,21.92
2023-05-08T11:41:22.072Z,21.67
2023-05-08T11:44:09.319Z,22.25
2023-05-08T11:46:53.535Z,20.55
2023-05-08T11:49:29.144Z,22.40
2023-05-08T11:51:59.789Z,22.02
2023-05-08T11:54:31.168Z,20.80
2023-05-08T11:59:27.316Z,21.73
2023-05-08T12:04:25.918Z,20.30
2023-05-08T12:06:58.707Z,21.00
2023-05-08T12:09:27.049Z,21.95
2023-05-08T12:11:58.121Z,19.70
2023-05-08T12:14:25.862Z,22.73
2023-05-08T12:16:53.551Z,23.42
2023-05-08T12:19:21.179Z,21.58
2023-05-08T12:21:49.308Z,25.25
2023-05-08T12:24:23.361Z,23.00
2023-05-08T12:26:55.889Z,22.55
2023-05-08T12:29:23.815Z,29.55
2023-05-08T12:31:52.699Z,32.55
2023-05-08T12:34:21.422Z,31.95
2023-05-08T12:36:49.001Z,33.33
2023-05-08T12:39:18.812Z,31.45
2023-05-08T12:41:51.180Z,31.38
2023-05-08T12:44:24.303Z,29.80
2023-05-08T12:47:01.137Z,30.33
2023-05-08T12:49:31.181Z,31.25
2023-05-08T12:52:12.290Z,19.42
2023-05-08T12:54:46.699Z,20.38
2023-05-08T12:57:19.579Z,20.70
2023-05-08T12:59:47.477Z,23.80
2023-05-08T13:02:18.367Z,23.30
2023-05-08T13:04:46.696Z,21.70
2023-05-08T13:07:14.562Z,25.75
2023-05-08T13:10:03.558Z,22.95
2023-05-08T13:12:32.014Z,22.40
2023-05-08T13:15:00.379Z,23.38
2023-05-08T13:17:27.942Z,22.15
2023-05-08T13:19:55.483Z,23.95
2023-05-08T13:22:26.583Z,23.25
2023-05-08T13:24:54.221Z,23.15
2023-05-08T13:27:21.979Z,22.48
2023-05-08T13:29:49.553Z,24.92
2023-05-08T13:32:17.234Z,25.42
2023-05-08T13:34:50.419Z,24.42
2023-05-08T13:37:19.242Z,25.85
2023-05-08T13:39:46.816Z,24.67
2023-05-08T13:42:14.333Z,26.73
2023-05-08T13:44:41.928Z,27.10
2023-05-08T13:47:10.256Z,25.67
2023-05-08T13:49:37.903Z,27.10
2023-05-08T13:52:06.820Z,25.10
2023-05-08T13:54:34.386Z,25.73
2023-05-08T13:57:02.690Z,24.65
2023-05-08T13:59:31.344Z,28.73
2023-05-08T14:01:58.953Z,26.65
2023-05-08T14:04:26.864Z,26.98
2023-05-08T14:06:54.562Z,26.92
2023-05-08T14:09:22.155Z,23.95
2023-05-08T14:11:49.731Z,26.52
2023-05-08T14:14:17.283Z,27.15
2023-05-08T14:16:45.064Z,27.45
2023-05-08T14:19:12.644Z,31.67
2023-05-08T14:21:40.596Z,32.00
2023-05-08T14:24:09.036Z,29.00
2023-05-08T14:26:36.670Z,30.33
2023-05-08T14:29:05.273Z,31.58
2023-05-08T14:31:32.875Z,28.73
2023-05-08T14:34:00.457Z,32.00
2023-05-08T14:36:28.040Z,29.17
2023-05-08T14:38:55.590Z,30.42
2023-05-08T14:41:27.244Z,28.33
2023-05-08T14:43:55.015Z,28.65
2023-05-08T14:46:22.752Z,30.77
2023-05-08T14:48:51.132Z,29.92
2023-05-08T14:51:19.353Z,29.10
2023-05-08T14:53:47.038Z,28.73
2023-05-08T14:56:14.956Z,29.95
2023-05-08T14:58:42.702Z,30.25
2023-05-08T15:01:10.277Z,30.25
2023-05-08T15:03:38.031Z,28.73
2023-05-08T15:06:06.424Z,33.58
2023-05-08T15:08:34.036Z,31.25
2023-05-08T15:11:01.702Z,31.50
2023-05-08T15:13:29.288Z,32.60
2023-05-08T15:16:00.637Z,32.15
2023-05-08T15:18:28.738Z,35.75
2023-05-08T15:20:57.891Z,32.88
2023-05-08T15:23:28.389Z,37.63
2023-05-08T15:25:55.897Z,35.87
2023-05-08T15:28:23.596Z,44.08
2023-05-08T15:30:51.452Z,37.08
2023-05-08T15:33:19.127Z,37.55
2023-05-08T15:35:46.684Z,29.88
2023-05-08T15:38:14.319Z,30.83
2023-05-08T15:40:42.000Z,33.33
2023-05-08T15:43:09.620Z,31.10
2023-05-08T15:45:37.454Z,33.42
2023-05-08T15:48:05.164Z,32.17
2023-05-08T15:50:33.779Z,30.15
2023-05-08T15:53:01.460Z,29.02
2023-05-08T15:55:29.039Z,28.08
2023-05-08T15:57:56.692Z,30.15
2023-05-08T16:00:27.321Z,29.63
2023-05-08T16:02:57.923Z,33.35
2023-05-08T16:05:25.604Z,29.13
2023-05-08T16:07:55.409Z,31.48
2023-05-08T16:10:23.145Z,35.63
2023-05-08T16:12:51.141Z,34.10
2023-05-08T16:15:18.784Z,33.25
2023-05-08T16:17:46.543Z,37.00
2023-05-08T16:20:14.190Z,37.45
2023-05-08T16:22:41.780Z,36.50
2023-05-08T16:25:09.872Z,45.20
2023-05-08T16:27:37.499Z,47.15
2023-05-08T16:30:06.243Z,41.65
2023-05-08T16:32:34.210Z,41.33
2023-05-08T16:35:01.971Z,38.13
2023-05-08T16:37:29.557Z,38.28
2023-05-08T16:39:57.075Z,37.38
2023-05-08T16:42:24.743Z,38.33
2023-05-08T16:44:52.267Z,37.22
2023-05-08T16:47:19.994Z,38.42
2023-05-08T16:49:47.504Z,35.30
2023-05-08T16:52:15.141Z,38.72
2023-05-08T16:54:42.711Z,31.08
2023-05-08T16:57:10.282Z,32.05
2023-05-08T16:59:37.806Z,37.70
2023-05-08T17:02:05.577Z,36.15
2023-05-08T17:04:33.430Z,36.03
2023-05-08T17:07:01.057Z,35.28
2023-05-08T17:09:28.700Z,33.00
2023-05-08T17:11:58.153Z,33.40
2023-05-08T17:14:25.711Z,39.35
2023-05-08T17:16:53.255Z,34.15
2023-05-08T17:19:20.830Z,33.50
2023-05-08T17:21:48.492Z,31.40
2023-05-08T17:24:16.148Z,36.13
2023-05-08T17:26:43.650Z,35.45
2023-05-08T17:29:11.469Z,36.05
2023-05-08T17:31:39.079Z,39.20
2023-05-08T17:34:06.684Z,38.85
2023-05-08T17:36:34.265Z,44.15
2023-05-08T17:39:01.913Z,41.22
2023-05-08T17:41:29.460Z,42.33
2023-05-08T17:43:56.951Z,39.88
2023-05-08T17:46:24.594Z,43.20
2023-05-08T17:48:52.130Z,43.10
2023-05-08T17:51:19.645Z,42.83
2023-05-08T17:53:47.232Z,41.75
2023-05-08T17:56:20.243Z,41.88
2023-05-08T17:58:47.893Z,42.63
2023-05-08T18:01:15.561Z,42.42
2023-05-08T18:03:44.989Z,42.25
2023-05-08T18:06:17.248Z,42.35
2023-05-08T18:08:45.854Z,41.35
2023-05-08T18:11:17.449Z,44.28
2023-05-08T18:13:45.410Z,42.70
2023-05-08T18:16:17.421Z,39.53
2023-05-08T18:18:45.553Z,44.33
2023-05-08T18:21:13.478Z,45.35
2023-05-08T18:23:41.018Z,41.17
2023-05-08T18:26:12.998Z,45.85
2023-05-08T18:28:40.613Z,42.35
2023-05-08T18:31:08.457Z,44.63
2023-05-08T18:33:37.226Z,42.67
2023-05-08T18:36:06.926Z,45.25
2023-05-08T18:38:35.636Z,49.22
2023-05-08T18:41:06.292Z,45.80
2023-05-08T18:43:34.186Z,38.80
2023-05-08T18:46:09.147Z,45.72
2023-05-08T18:48:42.792Z,50.35
2023-05-08T18:51:10.832Z,50.20
2023-05-08T18:53:38.942Z,52.13
2023-05-08T18:56:06.588Z,50.92
2023-05-08T18:58:36.767Z,52.40
2023-05-08T19:01:06.231Z,51.13
2023-05-08T19:03:33.954Z,52.53
2023-05-08T19:06:01.489Z,50.67
2023-05-08T19:08:32.152Z,49.67
2023-05-08T19:11:02.101Z,48.45
2023-05-08T19:13:29.913Z,50.05
2023-05-08T19:15:57.622Z,48.03
2023-05-08T19:18:25.167Z,47.03
2023-05-08T19:20:52.766Z,49.92
2023-05-08T19:23:20.541Z,49.10
2023-05-08T19:25:48.292Z,49.72
2023-05-08T19:28:16.064Z,48.72
2023-05-08T19:30:46.932Z,50.63
2023-05-08T19:33:14.556Z,52.10
2023-05-08T19:35:45.274Z,51.17
2023-05-08T19:38:13.410Z,50.17
2023-05-08T19:40:52.505Z,46.35
2023-05-08T19:43:24.374Z,53.45
2023-05-08T19:45:52.191Z,48.25
2023-05-08T19:48:20.477Z,44.28
2023-05-08T19:50:48.219Z,44.13
2023-05-08T19:53:16.013Z,45.90
2023-05-08T19:55:43.674Z,47.63
2023-05-08T19:58:11.380Z,46.55
2023-05-08T20:00:39.008Z,45.75
2023-05-08T20:03:09.578Z,47.95
2023-05-08T20:05:37.198Z,44.15
2023-05-08T20:08:04.871Z,42.08
2023-05-08T20:10:32.536Z,44.03
2023-05-08T20:13:00.701Z,48.40
2023-05-08T20:15:28.288Z,48.33
2023-05-08T20:17:56.180Z,43.67
2023-05-08T20:20:23.865Z,46.85
2023-05-08T20:22:51.425Z,46.33
2023-05-08T20:25:19.281Z,42.95
2023-05-08T20:27:46.831Z,47.95
2023-05-08T20:30:14.848Z,47.63
2023-05-08T20:32:42.679Z,46.05
2023-05-08T20:35:10.272Z,40.88
2023-05-08T20:37:45.889Z,45.75
2023-05-08T20:40:15.182Z,48.65
2023-05-08T20:42:43.040Z,43.10
2023-05-08T20:45:11.440Z,45.72
2023-05-08T20:47:39.376Z,45.78
2023-05-08T20:50:07.536Z,47.45
2023-05-08T20:52:37.425Z,48.00
2023-05-08T20:55:06.564Z,42.90
2023-05-08T20:57:34.333Z,44.72
2023-05-08T21:00:01.908Z,49.17
2023-05-08T21:02:29.823Z,48.90
2023-05-08T21:04:57.466Z,47.58
2023-05-08T21:07:25.220Z,50.30
2023-05-08T21:10:00.176Z,47.47
2023-05-08T21:12:27.711Z,48.20
2023-05-08T21:14:59.650Z,48.25
2023-05-08T21:17:27.618Z,49.35
2023-05-08T21:19:56.972Z,48.03
2023-05-08T21:22:24.871Z,46.63
2023-05-08T21:24:52.414Z,52.28
2023-05-08T21:27:20.678Z,48.10
2023-05-08T21:29:48.262Z,49.05
2023-05-08T21:32:15.831Z,52.03
2023-05-08T21:34:43.510Z,50.95
2023-05-08T21:37:11.129Z,49.88
2023-05-08T21:39:38.830Z,52.60
2023-05-08T21:42:06.378Z,49.13
2023-05-08T21:44:33.964Z,51.03
2023-05-08T21:47:01.566Z,56.00
2023-05-08T21:49:29.170Z,51.65
2023-05-08T21:51:57.899Z,50.33
2023-05-08T21:54:25.479Z,51.58
2023-05-08T21:56:53.045Z,51.80
2023-05-08T21:59:20.858Z,53.88
2023-05-08T22:01:48.495Z,48.78
2023-05-08T22:04:16.103Z,50.17
2023-05-08T22:06:44.526Z,53.50
2023-05-08T22:09:12.162Z,51.45
2023-05-08T22:11:39.735Z,52.22
2023-05-08T22:14:07.339Z,51.15
2023-05-08T22:16:35.266Z,52.20
2023-05-08T22:19:02.987Z,52.38
2023-05-08T22:21:30.587Z,53.20
2023-05-08T22:23:58.126Z,56.30
2023-05-08T22:26:26.230Z,55.17
2023-05-08T22:28:53.860Z,57.88
2023-05-08T22:31:21.597Z,59.58
2023-05-08T22:33:49.140Z,57.45
2023-05-08T22:36:16.782Z,56.38
2023-05-08T22:38:44.779Z,55.25
2023-05-08T22:41:12.341Z,57.80
2023-05-08T22:43:40.072Z,56.60
2023-05-08T22:46:07.876Z,58.35
2023-05-08T22:48:36.175Z,57.55
2023-05-08T22:51:04.574Z,57.83
2023-05-08T22:53:32.079Z,54.75
2023-05-08T22:55:59.680Z,59.25
2023-05-08T22:58:29.148Z,58.00
2023-05-08T23:00:56.898Z,63.33
2023-05-08T23:03:24.533Z,55.13
2023-05-08T23:05:52.171Z,57.35
2023-05-08T23:08:19.851Z,58.58
2023-05-08T23:10:47.479Z,62.25
2023-05-08T23:13:15.255Z,61.80
2023-05-08T23:15:43.121Z,55.65
2023-05-08T23:18:10.738Z,61.95
2023-05-08T23:20:38.421Z,61.10
2023-05-08T23:23:07.351Z,58.05
2023-05-08T23:25:34.925Z,56.08
2023-05-08T23:28:02.460Z,51.05
2023-05-08T23:30:30.253Z,57.90
2023-05-08T23:32:57.818Z,59.95
2023-05-08T23:35:25.508Z,60.72
2023-05-08T23:37:53.073Z,57.17
2023-05-08T23:40:20.753Z,58.38
2023-05-08T23:42:48.372Z,61.63
2023-05-08T23:45:16.545Z,69.07
2023-05-08T23:47:44.368Z,61.80
2023-05-08T23:50:12.558Z,60.08
2023-05-08T23:52:41.487Z,65.28
2023-05-08T23:55:09.972Z,59.00
2023-05-08T23:57:37.561Z,62.33
